Time;durP1;ratioP1;P1;durP2;ratioP2;P2;SDS_P1;SDS_P2;PMS_P1;PMS_P2;Temp;Humidity;BMP_temperature;BMP_pressure;BME280_temperature;BME280_humidity;BME280_pressure;Samples;Min_cycle;Max_cycle;Signal;HPM_P1;HPM_P2
2024/01/21 00:00:47;;;;;;;7.40;4.10;;;;;;;1.02;87.81;101688.49;112886;241;38735;-68
2024/01/21 00:03:40;;;;;;;5.90;3.30;;;;;;;0.88;87.49;101695.38;112836;241;38508;-69
2024/01/21 00:06:14;;;;;;;7.20;3.30;;;;;;;0.74;87.29;101701.94;112877;241;38577;-70
2024/01/21 00:08:48;;;;;;;6.10;2.80;;;;;;;0.64;87.24;101703.60;112852;241;39842;-70
2024/01/21 00:11:21;;;;;;;6.90;3.50;;;;;;;0.54;87.03;101709.38;112847;241;38465;-70
2024/01/21 00:13:55;;;;;;;7.00;3.30;;;;;;;0.43;87.00;101710.98;112863;241;38843;-68
2024/01/21 00:16:29;;;;;;;6.90;4.00;;;;;;;0.33;87.03;101718.80;112835;241;38450;-68
2024/01/21 00:19:03;;;;;;;7.00;3.50;;;;;;;0.20;86.90;101718.64;112856;241;39029;-69
2024/01/21 00:21:37;;;;;;;8.50;4.50;;;;;;;0.11;86.94;101722.34;112814;241;38884;-70
2024/01/21 00:24:11;;;;;;;7.70;4.40;;;;;;;-0.02;86.80;101724.58;112855;241;38401;-70
2024/01/21 00:26:45;;;;;;;9.40;5.30;;;;;;;-0.12;86.88;101730.31;112850;241;38341;-70
2024/01/21 00:29:19;;;;;;;9.70;4.20;;;;;;;-0.18;87.08;101735.45;112844;241;38471;-68
2024/01/21 00:31:53;;;;;;;7.40;4.10;;;;;;;-0.22;87.11;101739.11;112885;241;38243;-68
2024/01/21 00:34:26;;;;;;;6.20;4.40;;;;;;;-0.28;86.87;101741.17;112880;241;40219;-69
2024/01/21 00:37:00;;;;;;;9.00;4.60;;;;;;;-0.38;86.59;101741.42;112844;241;38315;-70
2024/01/21 00:39:33;;;;;;;6.90;4.00;;;;;;;-0.47;86.52;101745.09;112848;241;39289;-69
2024/01/21 00:42:07;;;;;;;7.10;3.90;;;;;;;-0.57;86.59;101748.41;112889;241;40023;-69
2024/01/21 00:44:41;;;;;;;7.80;3.60;;;;;;;-0.67;86.54;101751.36;112876;241;39655;-68
2024/01/21 00:47:15;;;;;;;6.70;3.30;;;;;;;-0.78;86.52;101759.59;112869;241;40690;-68
2024/01/21 00:49:48;;;;;;;8.50;3.30;;;;;;;-0.89;86.22;101760.44;112849;241;38315;-69
2024/01/21 00:52:22;;;;;;;6.50;3.70;;;;;;;-1.00;86.40;101765.42;112841;241;38849;-69
2024/01/21 00:54:56;;;;;;;7.10;3.40;;;;;;;-1.05;86.72;101767.49;112757;241;175802;-69
2024/01/21 00:57:30;;;;;;;8.40;3.60;;;;;;;-1.10;86.73;101775.05;112861;241;38523;-69
2024/01/21 01:00:04;;;;;;;7.80;4.10;;;;;;;-1.16;86.84;101779.98;112865;241;38628;-68
2024/01/21 01:02:38;;;;;;;5.80;3.90;;;;;;;-1.26;86.71;101789.59;112866;241;38350;-68
2024/01/21 01:05:12;;;;;;;8.00;3.50;;;;;;;-1.35;86.77;101792.38;112858;241;39873;-67
2024/01/21 01:07:46;;;;;;;6.50;3.90;;;;;;;-1.44;86.66;101797.39;112858;241;38521;-68
2024/01/21 01:10:19;;;;;;;6.30;3.80;;;;;;;-1.48;86.88;101799.45;112867;241;38250;-67
2024/01/21 01:12:53;;;;;;;8.70;4.30;;;;;;;-1.49;87.35;101803.01;112917;241;38344;-67
2024/01/21 01:15:26;;;;;;;8.30;4.40;;;;;;;-1.49;87.55;101806.42;112855;241;38674;-67
2024/01/21 01:18:00;;;;;;;8.60;4.50;;;;;;;-1.53;87.68;101804.61;112858;241;39496;-67
2024/01/21 01:20:34;;;;;;;10.40;5.20;;;;;;;-1.58;87.73;101809.56;112858;241;38422;-67
2024/01/21 01:23:07;;;;;;;9.30;5.40;;;;;;;-1.66;87.57;101813.40;112825;241;40146;-67
2024/01/21 01:25:41;;;;;;;7.40;4.30;;;;;;;-1.73;87.56;101816.73;112898;241;38421;-67
2024/01/21 01:28:15;;;;;;;6.10;4.40;;;;;;;-1.76;87.70;101821.75;112855;241;40053;-67
2024/01/21 01:30:48;;;;;;;8.10;4.70;;;;;;;-1.80;87.76;101828.63;112831;241;38827;-67
2024/01/21 01:33:22;;;;;;;7.90;4.80;;;;;;;-1.82;87.93;101826.69;112852;241;38718;-68
2024/01/21 01:35:56;;;;;;;9.70;5.20;;;;;;;-1.83;87.93;101830.95;112847;241;38654;-69
2024/01/21 01:38:29;;;;;;;9.80;5.30;;;;;;;-1.87;87.99;101834.04;112891;241;38674;-69
2024/01/21 01:41:03;;;;;;;9.80;5.20;;;;;;;-1.92;87.86;101831.45;112857;241;40026;-69
2024/01/21 01:43:37;;;;;;;10.30;5.10;;;;;;;-1.98;87.76;101830.54;112847;241;38971;-69
2024/01/21 01:46:11;;;;;;;7.90;4.60;;;;;;;-2.04;87.69;101838.69;112873;241;38842;-69
2024/01/21 01:48:45;;;;;;;10.80;5.20;;;;;;;-2.07;87.76;101842.01;112856;241;39017;-67
2024/01/21 01:51:19;;;;;;;11.60;5.70;;;;;;;-2.09;87.76;101848.95;112729;241;172765;-67
2024/01/21 01:53:52;;;;;;;8.50;4.70;;;;;;;-2.12;87.92;101853.98;112869;241;39039;-67
2024/01/21 01:56:26;;;;;;;9.20;5.30;;;;;;;-2.18;87.67;101859.75;112825;241;40226;-67
2024/01/21 01:59:01;;;;;;;9.80;5.60;;;;;;;-2.24;87.61;101856.09;112862;241;38459;-68
2024/01/21 02:01:34;;;;;;;9.80;4.80;;;;;;;-2.30;87.61;101858.94;112854;241;38354;-68
2024/01/21 02:04:09;;;;;;;8.20;5.00;;;;;;;-2.39;87.45;101860.48;112903;241;38514;-68
2024/01/21 02:06:42;;;;;;;9.50;4.70;;;;;;;-2.45;87.38;101868.42;112868;241;38390;-68
2024/01/21 02:09:16;;;;;;;7.10;4.10;;;;;;;-2.48;87.44;101868.14;112878;241;39275;-69
2024/01/21 02:11:50;;;;;;;8.20;4.90;;;;;;;-2.50;87.68;101871.99;112881;241;38762;-69
2024/01/21 02:14:23;;;;;;;8.80;4.60;;;;;;;-2.52;87.45;101876.51;112830;241;39006;-67
2024/01/21 02:16:57;;;;;;;7.50;4.30;;;;;;;-2.57;87.34;101882.30;112880;241;39170;-67
2024/01/21 02:19:31;;;;;;;9.80;4.50;;;;;;;-2.65;87.25;101889.02;112875;241;38854;-68
2024/01/21 02:22:05;;;;;;;8.00;4.30;;;;;;;-2.74;87.08;101886.59;112825;241;40119;-68
2024/01/21 02:24:39;;;;;;;8.30;4.50;;;;;;;-2.82;87.11;101890.02;112841;241;39794;-68
2024/01/21 02:27:12;;;;;;;6.40;3.90;;;;;;;-2.89;86.96;101896.73;112889;241;38961;-69
2024/01/21 02:29:46;;;;;;;5.60;3.70;;;;;;;-2.92;87.09;101894.39;112885;241;40047;-67
2024/01/21 02:32:20;;;;;;;6.70;4.20;;;;;;;-2.96;87.16;101895.44;112874;241;38383;-67
2024/01/21 02:34:54;;;;;;;8.40;5.10;;;;;;;-3.02;86.96;101900.80;112840;241;39073;-67
2024/01/21 02:37:28;;;;;;;8.70;4.80;;;;;;;-3.14;86.67;101909.20;112833;241;39566;-67
2024/01/21 02:40:01;;;;;;;9.70;4.60;;;;;;;-3.24;86.50;101910.98;112851;241;38262;-67
2024/01/21 02:42:35;;;;;;;8.50;4.60;;;;;;;-3.34;86.50;101911.93;112854;241;39149;-67
2024/01/21 02:45:10;;;;;;;6.10;4.40;;;;;;;-3.42;86.57;101916.17;112845;241;38300;-67
2024/01/21 02:47:43;;;;;;;7.00;4.70;;;;;;;-3.50;86.42;101913.77;112885;241;38392;-67
2024/01/21 02:50:17;;;;;;;9.40;5.30;;;;;;;-3.54;86.62;101913.76;112845;241;39061;-67
2024/01/21 02:52:51;;;;;;;9.80;5.70;;;;;;;-3.57;86.76;101912.62;112896;241;38701;-68
2024/01/21 02:55:24;;;;;;;7.00;5.30;;;;;;;-3.63;86.45;101916.95;112866;241;38861;-69
2024/01/21 02:57:58;;;;;;;9.50;6.00;;;;;;;-3.67;86.69;101925.67;112774;241;175411;-68
2024/01/21 03:00:32;;;;;;;13.00;7.00;;;;;;;-3.69;86.78;101925.02;112837;241;38548;-67
2024/01/21 03:03:06;;;;;;;10.90;6.00;;;;;;;-3.77;86.52;101927.23;112857;241;38818;-67
2024/01/21 03:05:39;;;;;;;11.00;6.10;;;;;;;-3.85;86.45;101931.30;112841;241;40082;-67
2024/01/21 03:08:14;;;;;;;8.10;5.60;;;;;;;-3.93;86.44;101931.98;112857;241;40173;-68
2024/01/21 03:10:50;;;;;;;8.00;5.10;;;;;;;-3.98;86.37;101933.98;112866;241;39534;-68
2024/01/21 03:13:23;;;;;;;8.20;5.40;;;;;;;-4.00;86.42;101927.89;112877;241;39245;-67
2024/01/21 03:15:57;;;;;;;11.70;6.20;;;;;;;-4.02;86.42;101926.27;112891;241;38750;-67
2024/01/21 03:18:31;;;;;;;8.80;5.80;;;;;;;-4.07;86.31;101924.66;112868;241;39437;-68
2024/01/21 03:21:05;;;;;;;13.30;6.30;;;;;;;-4.14;86.32;101927.77;112848;241;38688;-67
2024/01/21 03:23:38;;;;;;;8.40;5.20;;;;;;;-4.20;86.10;101928.35;112848;241;38602;-68
2024/01/21 03:26:12;;;;;;;9.00;5.30;;;;;;;-4.28;86.01;101933.25;112865;241;39016;-68
2024/01/21 03:28:46;;;;;;;8.50;5.30;;;;;;;-4.33;86.16;101938.27;112852;241;38256;-68
2024/01/21 03:31:21;;;;;;;9.10;5.50;;;;;;;-4.38;86.09;101943.33;112854;241;40183;-68
2024/01/21 03:33:55;;;;;;;7.80;4.70;;;;;;;-4.43;85.93;101947.17;112866;241;38446;-68
2024/01/21 03:36:28;;;;;;;9.40;5.70;;;;;;;-4.49;85.76;101951.48;112877;241;38555;-69
2024/01/21 03:39:03;;;;;;;8.70;5.10;;;;;;;-4.53;85.78;101954.54;112881;241;38697;-68
2024/01/21 03:41:37;;;;;;;8.60;5.60;;;;;;;-4.59;85.69;101952.02;112873;241;39909;-68
2024/01/21 03:44:10;;;;;;;10.40;6.00;;;;;;;-4.67;85.62;101956.23;112851;241;38338;-67
2024/01/21 03:46:44;;;;;;;8.30;5.20;;;;;;;-4.75;85.54;101969.14;112884;241;39582;-67
2024/01/21 03:49:18;;;;;;;9.60;5.30;;;;;;;-4.82;85.41;101970.13;112861;241;39514;-67
2024/01/21 03:51:51;;;;;;;8.10;5.60;;;;;;;-4.92;85.20;101968.60;112891;241;40021;-67
2024/01/21 03:54:25;;;;;;;7.60;4.60;;;;;;;-5.00;85.30;101972.81;112866;241;39663;-68
2024/01/21 03:56:59;;;;;;;7.10;5.30;;;;;;;-5.04;85.37;101971.41;112850;241;38510;-68
2024/01/21 03:59:33;;;;;;;7.20;4.80;;;;;;;-5.09;85.11;101974.55;112897;241;38563;-68
2024/01/21 04:02:07;;;;;;;9.50;4.80;;;;;;;-5.11;85.34;101979.52;112863;241;38284;-68
2024/01/21 04:04:41;;;;;;;8.50;5.40;;;;;;;-5.14;85.23;101976.83;112867;241;38631;-68
2024/01/21 04:07:15;;;;;;;9.60;4.90;;;;;;;-5.20;85.13;101978.23;112870;241;38458;-68
2024/01/21 04:09:48;;;;;;;9.90;5.40;;;;;;;-5.26;85.04;101975.88;112870;241;39995;-68
2024/01/21 04:12:25;;;;;;;11.50;5.10;;;;;;;-5.37;84.89;101977.85;112854;241;38399;-68
2024/01/21 04:14:58;;;;;;;10.90;5.20;;;;;;;-5.48;84.59;101977.79;112873;241;38471;-67
2024/01/21 04:17:32;;;;;;;8.70;4.80;;;;;;;-5.55;84.56;101982.67;112862;241;37916;-67
2024/01/21 04:20:07;;;;;;;6.50;4.70;;;;;;;-5.57;84.78;101984.64;112845;241;38492;-67
2024/01/21 04:22:41;;;;;;;8.20;4.30;;;;;;;-5.55;85.06;101985.92;112867;241;38996;-67
2024/01/21 04:25:14;;;;;;;6.90;4.70;;;;;;;-5.55;85.14;101985.90;112876;241;38864;-67
2024/01/21 04:27:48;;;;;;;9.20;4.90;;;;;;;-5.61;84.99;101984.92;112895;241;37867;-68
2024/01/21 04:30:22;;;;;;;8.60;5.00;;;;;;;-5.65;85.19;101979.29;112901;241;38405;-68
2024/01/21 04:32:55;;;;;;;8.50;4.10;;;;;;;-5.70;84.94;101981.35;112902;241;38398;-68
2024/01/21 04:35:30;;;;;;;7.20;3.80;;;;;;;-5.81;84.56;101983.18;112862;241;38864;-68
2024/01/21 04:38:04;;;;;;;8.70;4.50;;;;;;;-5.92;84.19;101988.88;112865;241;40014;-68
2024/01/21 04:40:39;;;;;;;5.50;3.20;;;;;;;-5.99;84.12;101995.15;112873;241;39015;-68
2024/01/21 04:43:12;;;;;;;6.10;3.20;;;;;;;-6.05;83.87;101998.36;112754;241;175529;-67
2024/01/21 04:45:46;;;;;;;8.20;3.90;;;;;;;-6.13;83.61;101992.15;112855;241;39164;-67
2024/01/21 04:48:20;;;;;;;7.50;3.40;;;;;;;-6.22;83.62;101994.90;112907;241;38955;-68
2024/01/21 04:50:53;;;;;;;5.00;3.00;;;;;;;-6.26;84.04;101997.38;112868;241;38233;-68
2024/01/21 04:53:27;;;;;;;4.70;3.40;;;;;;;-6.28;84.37;101999.16;112868;241;38790;-68
2024/01/21 04:56:00;;;;;;;5.20;3.10;;;;;;;-6.32;84.35;102000.11;112729;241;175520;-68
2024/01/21 04:58:34;;;;;;;3.90;2.80;;;;;;;-6.40;84.03;102001.52;112867;241;39171;-67
2024/01/21 05:01:07;;;;;;;11.00;3.60;;;;;;;-6.48;83.93;102000.20;112703;241;38432;-67
2024/01/21 05:03:41;;;;;;;4.40;2.30;;;;;;;-6.52;84.14;102005.23;112883;241;40646;-67
2024/01/21 05:06:15;;;;;;;4.20;2.60;;;;;;;-6.50;84.35;102009.98;112526;241;427716;-67
2024/01/21 05:08:48;;;;;;;4.10;2.30;;;;;;;-6.49;84.10;102006.94;112878;241;38256;-67
2024/01/21 05:11:22;;;;;;;4.20;2.60;;;;;;;-6.49;84.34;102014.94;112867;241;39057;-66
2024/01/21 05:13:56;;;;;;;5.50;2.70;;;;;;;-6.48;84.45;102017.86;112888;241;38280;-67
2024/01/21 05:16:29;;;;;;;5.80;2.90;;;;;;;-6.51;84.31;102021.29;112866;241;39514;-67
2024/01/21 05:19:03;;;;;;;4.60;2.70;;;;;;;-6.62;83.89;102024.02;112938;241;38454;-68
2024/01/21 05:21:37;;;;;;;5.30;2.70;;;;;;;-6.69;83.87;102024.79;112850;241;39778;-68
2024/01/21 05:24:11;;;;;;;6.40;3.00;;;;;;;-6.77;83.57;102030.77;112880;241;38617;-67
2024/01/21 05:26:47;;;;;;;5.30;2.80;;;;;;;-6.83;83.66;102026.16;112897;241;38631;-67
2024/01/21 05:29:21;;;;;;;5.10;2.80;;;;;;;-6.86;83.75;102029.39;112869;241;38879;-67
2024/01/21 05:31:55;;;;;;;4.90;2.50;;;;;;;-6.88;83.95;102032.20;112883;241;39795;-67
2024/01/21 05:34:28;;;;;;;4.60;2.60;;;;;;;-6.89;83.91;102031.91;112854;241;38578;-67
2024/01/21 05:37:02;;;;;;;2.90;2.10;;;;;;;-6.95;83.62;102033.95;112898;241;38697;-68
2024/01/21 05:39:36;;;;;;;3.30;2.50;;;;;;;-7.00;83.56;102036.86;112884;241;39604;-68
2024/01/21 05:42:11;;;;;;;3.40;2.30;;;;;;;-7.11;83.20;102039.93;112864;241;38376;-68
2024/01/21 05:44:44;;;;;;;4.20;2.80;;;;;;;-7.23;83.12;102038.40;112864;241;38243;-67
2024/01/21 05:47:18;;;;;;;3.00;1.90;;;;;;;-7.30;83.21;102042.06;112878;241;39164;-67
2024/01/21 05:49:52;;;;;;;4.30;2.20;;;;;;;-7.32;83.39;102048.34;112880;241;38352;-67
2024/01/21 05:52:26;;;;;;;3.50;2.50;;;;;;;-7.35;83.35;102049.21;112875;241;38335;-67
2024/01/21 05:54:59;;;;;;;4.10;2.30;;;;;;;-7.35;83.26;102054.08;112884;241;37947;-68
2024/01/21 05:57:33;;;;;;;3.80;1.90;;;;;;;-7.39;83.06;102056.23;112865;241;40843;-67
2024/01/21 06:00:08;;;;;;;3.10;2.40;;;;;;;-7.42;83.12;102052.48;112840;241;38277;-67
2024/01/21 06:02:41;;;;;;;5.80;2.40;;;;;;;-7.47;82.94;102051.69;112879;241;38500;-67
2024/01/21 06:05:15;;;;;;;4.40;2.60;;;;;;;-7.53;82.95;102053.14;112851;241;38861;-67
2024/01/21 06:07:49;;;;;;;10.50;2.60;;;;;;;-7.60;82.92;102058.67;112863;241;39262;-67
2024/01/21 06:10:22;;;;;;;4.20;2.40;;;;;;;-7.67;82.80;102061.92;112897;241;38730;-68
2024/01/21 06:12:56;;;;;;;4.70;3.00;;;;;;;-7.75;82.62;102059.03;112871;241;39728;-68
2024/01/21 06:15:29;;;;;;;2.80;1.80;;;;;;;-7.81;82.56;102059.06;112836;241;38287;-68
2024/01/21 06:18:03;;;;;;;3.80;2.50;;;;;;;-7.80;82.93;102056.87;112878;241;38544;-67
2024/01/21 06:20:37;;;;;;;3.00;2.40;;;;;;;-7.77;83.05;102060.31;112865;241;38950;-67
2024/01/21 06:23:10;;;;;;;3.40;2.40;;;;;;;-7.71;83.26;102065.77;112862;241;38545;-67
2024/01/21 06:25:44;;;;;;;3.10;2.10;;;;;;;-7.65;83.09;102068.84;112899;241;38181;-67
2024/01/21 06:28:18;;;;;;;4.30;2.30;;;;;;;-7.58;83.12;102072.16;112865;241;39725;-67
2024/01/21 06:30:52;;;;;;;5.30;3.40;;;;;;;-7.46;83.26;102073.91;112748;241;173050;-67
2024/01/21 06:33:25;;;;;;;3.60;2.50;;;;;;;-7.36;83.22;102076.59;112839;241;38382;-67
2024/01/21 06:35:59;;;;;;;2.90;2.10;;;;;;;-7.30;82.75;102077.16;112839;241;39762;-67
2024/01/21 06:38:33;;;;;;;3.20;2.00;;;;;;;-7.24;82.44;102080.20;112867;241;40341;-67
2024/01/21 06:41:06;;;;;;;4.70;2.60;;;;;;;-7.23;82.27;102086.86;112850;241;39983;-67
2024/01/21 06:43:40;;;;;;;3.60;2.80;;;;;;;-7.21;82.09;102086.80;112870;241;39089;-67
2024/01/21 06:46:15;;;;;;;3.90;2.30;;;;;;;-7.21;82.31;102090.55;112820;241;39036;-67
2024/01/21 06:48:48;;;;;;;4.00;2.50;;;;;;;-7.21;82.14;102096.00;112870;241;38826;-67
2024/01/21 06:51:31;;;;;;;5.80;3.10;;;;;;;-7.28;81.81;102093.17;112843;241;38315;-67
2024/01/21 06:54:05;;;;;;;4.60;3.20;;;;;;;-7.33;82.08;102094.43;112902;241;38508;-66
2024/01/21 06:56:39;;;;;;;4.60;3.10;;;;;;;-7.35;82.50;102096.16;112850;241;38526;-66
2024/01/21 06:59:13;;;;;;;6.30;3.50;;;;;;;-7.34;82.77;102103.63;112748;241;173043;-67
2024/01/21 07:01:46;;;;;;;6.60;3.70;;;;;;;-7.33;83.21;102103.19;112877;241;38247;-67
2024/01/21 07:04:20;;;;;;;7.60;4.80;;;;;;;-7.32;83.49;102111.27;112843;241;39646;-67
2024/01/21 07:06:54;;;;;;;6.60;3.80;;;;;;;-7.29;83.77;102115.88;112901;241;40208;-67
2024/01/21 07:09:28;;;;;;;6.60;3.50;;;;;;;-7.22;84.05;102113.03;112837;241;38400;-67
2024/01/21 07:12:04;;;;;;;4.70;3.50;;;;;;;-7.13;84.42;102107.46;112858;241;38676;-69
2024/01/21 07:14:37;;;;;;;6.30;4.40;;;;;;;-7.00;84.68;102105.40;112843;241;38528;-67
2024/01/21 07:17:12;;;;;;;5.10;3.90;;;;;;;-6.84;85.09;102109.44;112853;241;38336;-66
2024/01/21 07:19:45;;;;;;;7.50;4.10;;;;;;;-6.67;85.36;102117.39;112857;241;39545;-67
2024/01/21 07:22:19;;;;;;;7.30;4.10;;;;;;;-6.54;85.58;102119.91;112841;241;38478;-67
2024/01/21 07:24:53;;;;;;;7.90;4.40;;;;;;;-6.39;85.98;102115.31;112848;241;38887;-67
2024/01/21 07:27:27;;;;;;;6.70;4.70;;;;;;;-6.28;85.85;102114.82;112882;241;39217;-67
2024/01/21 07:30:01;;;;;;;10.00;5.70;;;;;;;-6.17;86.16;102119.98;112855;241;39671;-67
2024/01/21 07:32:34;;;;;;;7.80;4.70;;;;;;;-6.06;86.36;102114.02;112876;241;39736;-67
2024/01/21 07:35:10;;;;;;;7.50;4.60;;;;;;;-5.93;86.52;102118.14;112843;241;38881;-67
2024/01/21 07:37:43;;;;;;;7.70;4.30;;;;;;;-5.70;86.83;102121.47;112867;241;39875;-67
2024/01/21 07:40:17;;;;;;;5.50;4.00;;;;;;;-5.39;87.50;102119.60;112879;241;38613;-68
2024/01/21 07:42:51;;;;;;;8.50;4.80;;;;;;;-5.17;87.64;102119.41;112875;241;38414;-67
2024/01/21 07:45:25;;;;;;;9.30;5.30;;;;;;;-4.96;88.01;102120.18;112838;241;38179;-67
2024/01/21 07:47:58;;;;;;;8.10;5.60;;;;;;;-4.78;88.25;102116.44;112841;241;39834;-67
2024/01/21 07:50:32;;;;;;;8.60;6.50;;;;;;;-4.61;88.36;102115.25;112853;241;39479;-67
2024/01/21 07:53:06;;;;;;;6.50;4.70;;;;;;;-4.41;88.49;102116.76;112871;241;39937;-67
2024/01/21 07:55:40;;;;;;;9.70;5.30;;;;;;;-4.26;88.27;102122.14;112871;241;38755;-67
2024/01/21 07:58:15;;;;;;;8.00;4.90;;;;;;;-4.12;88.02;102124.17;112847;241;38575;-67
2024/01/21 08:00:49;;;;;;;8.50;5.70;;;;;;;-3.98;88.01;102118.92;112861;241;38888;-67
2024/01/21 08:03:22;;;;;;;8.70;5.50;;;;;;;-3.77;88.40;102120.95;112895;241;38401;-67
2024/01/21 08:05:56;;;;;;;10.50;6.30;;;;;;;-3.64;88.17;102125.19;112839;241;38670;-68
2024/01/21 08:08:30;;;;;;;9.30;6.10;;;;;;;-3.50;87.90;102124.81;112888;241;38902;-68
2024/01/21 08:11:04;;;;;;;9.30;5.90;;;;;;;-3.34;87.74;102126.08;112833;241;38330;-68
2024/01/21 08:13:38;;;;;;;10.60;6.70;;;;;;;-3.25;87.12;102130.94;112834;241;38741;-68
2024/01/21 08:16:12;;;;;;;9.00;6.20;;;;;;;-3.22;86.80;102127.50;112834;241;39853;-68
2024/01/21 08:18:45;;;;;;;9.80;6.30;;;;;;;-3.13;86.79;102132.16;112874;241;37275;-68
2024/01/21 08:21:19;;;;;;;8.30;5.90;;;;;;;-3.03;86.52;102132.09;112868;241;40040;-68
2024/01/21 08:23:53;;;;;;;8.20;6.00;;;;;;;-2.94;86.51;102135.23;112887;241;38914;-68
2024/01/21 08:26:27;;;;;;;8.10;6.00;;;;;;;-2.84;86.38;102138.92;112829;241;38812;-68
2024/01/21 08:29:01;;;;;;;10.30;6.90;;;;;;;-2.76;86.39;102135.53;112840;241;39475;-67
2024/01/21 08:31:34;;;;;;;11.50;6.50;;;;;;;-2.69;86.32;102134.15;112861;241;39032;-67
2024/01/21 08:34:08;;;;;;;10.00;8.00;;;;;;;-2.62;86.55;102130.55;112891;241;38225;-67
2024/01/21 08:36:42;;;;;;;13.70;8.50;;;;;;;-2.53;86.97;102131.75;112852;241;39167;-67
2024/01/21 08:39:16;;;;;;;17.90;10.40;;;;;;;-2.47;87.00;102132.55;112872;241;38434;-67
2024/01/21 08:41:49;;;;;;;15.00;9.80;;;;;;;-2.41;87.15;102131.96;112837;241;38847;-67
2024/01/21 08:44:23;;;;;;;18.10;11.20;;;;;;;-2.33;87.23;102129.05;112881;241;38542;-68
2024/01/21 08:46:57;;;;;;;25.20;13.40;;;;;;;-2.23;87.66;102129.14;112839;241;38206;-69
2024/01/21 08:49:31;;;;;;;25.00;14.10;;;;;;;-2.00;88.21;102127.17;112735;241;175304;-67
2024/01/21 08:52:04;;;;;;;23.80;14.40;;;;;;;-1.74;88.26;102123.95;112847;241;39363;-67
2024/01/21 08:54:38;;;;;;;23.20;15.30;;;;;;;-1.49;87.74;102127.00;112873;241;40191;-69
2024/01/21 08:57:12;;;;;;;28.80;15.70;;;;;;;-1.26;87.78;102127.91;112861;241;38806;-69
2024/01/21 08:59:45;;;;;;;27.10;17.10;;;;;;;-1.10;87.65;102135.20;112873;241;40005;-69
2024/01/21 09:02:20;;;;;;;29.60;17.70;;;;;;;-0.96;87.60;102133.99;112866;241;39023;-69
2024/01/21 09:04:53;;;;;;;25.80;15.90;;;;;;;-0.85;87.49;102132.54;112839;241;39745;-69
2024/01/21 09:07:27;;;;;;;31.90;18.70;;;;;;;-0.72;87.88;102132.48;112869;241;38720;-67
2024/01/21 09:10:03;;;;;;;33.20;19.30;;;;;;;-0.56;88.12;102130.68;112856;241;40158;-67
2024/01/21 09:12:37;;;;;;;40.70;21.70;;;;;;;-0.31;88.31;102126.05;112886;241;39593;-69
2024/01/21 09:15:12;;;;;;;39.40;22.60;;;;;;;-0.09;88.54;102127.84;112835;241;38597;-69
2024/01/21 09:17:45;;;;;;;42.90;24.30;;;;;;;0.23;88.75;102127.36;112869;241;38534;-68
2024/01/21 09:20:19;;;;;;;36.00;22.10;;;;;;;0.65;89.05;102128.84;112836;241;38564;-68
2024/01/21 09:22:52;;;;;;;37.80;21.90;;;;;;;0.98;88.99;102123.15;112854;241;39526;-69
2024/01/21 09:25:26;;;;;;;38.40;22.50;;;;;;;1.34;88.78;102122.45;112730;241;189417;-69
2024/01/21 09:28:00;;;;;;;41.60;21.70;;;;;;;1.62;88.56;102120.11;112900;241;38944;-68
2024/01/21 09:30:34;;;;;;;39.70;22.80;;;;;;;1.87;88.31;102119.05;112867;241;38885;-68
2024/01/21 09:33:08;;;;;;;43.20;23.20;;;;;;;2.11;88.00;102110.00;112842;241;38790;-67
2024/01/21 09:35:41;;;;;;;43.40;23.50;;;;;;;2.31;87.91;102108.25;112873;241;38891;-67
2024/01/21 09:38:18;;;;;;;43.90;24.40;;;;;;;2.47;87.38;102106.73;112855;241;38575;-69
2024/01/21 09:40:58;;;;;;;42.20;24.80;;;;;;;2.57;86.83;102108.18;112810;241;39694;-69
2024/01/21 09:43:32;;;;;;;49.20;26.50;;;;;;;2.58;85.95;102109.58;112858;241;38538;-69
2024/01/21 09:46:06;;;;;;;49.20;26.80;;;;;;;2.57;85.52;102112.66;112861;241;39199;-69
2024/01/21 09:48:39;;;;;;;49.70;25.80;;;;;;;2.55;84.99;102113.81;112883;241;38911;-67
2024/01/21 09:51:13;;;;;;;44.10;25.40;;;;;;;2.52;84.72;102114.43;112871;241;39073;-67
2024/01/21 09:53:46;;;;;;;43.30;24.80;;;;;;;2.46;84.37;102109.98;112873;241;39162;-68
2024/01/21 09:56:20;;;;;;;46.80;25.40;;;;;;;2.45;84.68;102108.92;112877;241;38950;-68
2024/01/21 09:58:54;;;;;;;43.50;24.50;;;;;;;2.51;84.72;102107.00;112882;241;38770;-68
2024/01/21 10:01:28;;;;;;;42.00;23.90;;;;;;;2.59;85.02;102110.29;112835;241;38495;-68
2024/01/21 10:04:02;;;;;;;45.50;25.20;;;;;;;2.66;84.55;102111.48;112878;241;38527;-68
2024/01/21 10:06:36;;;;;;;45.90;25.60;;;;;;;2.74;85.02;102110.43;112895;241;39598;-68
2024/01/21 10:09:20;;;;;;;42.70;24.20;;;;;;;2.76;84.23;102104.29;112871;241;39794;-69
2024/01/21 10:11:56;;;;;;;47.20;24.60;;;;;;;2.73;84.15;102101.29;112849;241;39835;-69
2024/01/21 10:14:31;;;;;;;45.30;25.30;;;;;;;2.66;83.52;102098.55;112893;241;40516;-69
2024/01/21 10:17:05;;;;;;;46.70;25.00;;;;;;;2.61;83.65;102100.34;112860;241;38352;-69
2024/01/21 10:19:38;;;;;;;48.00;25.70;;;;;;;2.59;83.80;102095.64;112802;241;38908;-69
2024/01/21 10:22:13;;;;;;;45.00;27.00;;;;;;;2.62;83.96;102090.17;112845;241;38263;-69
2024/01/21 10:24:48;;;;;;;43.40;24.30;;;;;;;2.63;83.77;102092.11;112853;241;38564;-69
2024/01/21 10:27:22;;;;;;;44.20;24.90;;;;;;;2.70;84.15;102087.45;112857;241;38459;-69
2024/01/21 10:29:57;;;;;;;45.50;25.10;;;;;;;2.74;83.24;102090.78;112893;241;38361;-68
2024/01/21 10:32:30;;;;;;;49.40;26.10;;;;;;;2.72;83.59;102091.80;112858;241;39914;-68
2024/01/21 10:35:06;;;;;;;45.20;26.60;;;;;;;2.78;83.63;102089.50;112850;241;38077;-68
2024/01/21 10:37:41;;;;;;;45.50;26.40;;;;;;;2.78;83.40;102083.82;112853;241;39669;-69
2024/01/21 10:40:15;;;;;;;50.00;26.50;;;;;;;2.80;83.58;102084.04;112847;241;38882;-69
2024/01/21 10:42:53;;;;;;;47.70;27.10;;;;;;;2.80;83.55;102085.91;112867;241;38752;-69
2024/01/21 10:45:27;;;;;;;50.10;27.60;;;;;;;2.80;83.36;102083.34;112857;241;38559;-69
2024/01/21 10:48:01;;;;;;;43.50;24.90;;;;;;;2.79;83.00;102085.55;112839;241;38686;-69
2024/01/21 10:50:34;;;;;;;41.20;24.70;;;;;;;2.77;82.87;102088.13;112825;241;38907;-70
2024/01/21 10:53:10;;;;;;;44.70;26.20;;;;;;;2.79;83.05;102082.64;112878;241;38544;-68
2024/01/21 10:55:44;;;;;;;44.50;25.60;;;;;;;2.82;82.84;102086.16;112852;241;38626;-68
2024/01/21 10:58:25;;;;;;;49.80;27.40;;;;;;;2.85;82.90;102083.27;112875;241;38964;-69
2024/01/21 11:01:02;;;;;;;51.30;28.00;;;;;;;2.89;83.04;102083.70;112906;241;38388;-69
2024/01/21 11:03:43;;;;;;;50.00;29.20;;;;;;;2.94;83.05;102086.21;112863;241;38503;-70
2024/01/21 11:06:48;;;;;;;51.50;28.40;;;;;;;2.97;82.48;102085.59;112861;241;39492;-70
2024/01/21 11:09:28;;;;;;;49.20;27.40;;;;;;;2.96;82.25;102087.65;112907;241;38987;-69
2024/01/21 11:12:02;;;;;;;45.00;25.70;;;;;;;2.99;82.57;102092.02;112851;241;39810;-69
2024/01/21 11:14:37;;;;;;;50.20;32.20;;;;;;;3.05;82.64;102091.11;112850;241;38571;-69
2024/01/21 11:17:11;;;;;;;52.30;30.50;;;;;;;3.14;82.59;102086.80;112847;241;39779;-69
2024/01/21 11:19:52;;;;;;;44.30;27.60;;;;;;;3.21;82.66;102082.64;112899;241;39470;-68
2024/01/21 11:22:30;;;;;;;44.90;26.50;;;;;;;3.25;82.46;102079.77;112868;241;39775;-68
2024/01/21 11:25:37;;;;;;;44.90;26.70;;;;;;;3.24;81.61;102076.29;112745;241;188892;-70
2024/01/21 11:28:33;;;;;;;46.60;27.20;;;;;;;3.18;81.67;102073.61;112901;241;38403;-68
2024/01/21 11:31:10;;;;;;;43.40;25.20;;;;;;;3.17;81.86;102068.07;112838;241;38300;-68
2024/01/21 11:33:45;;;;;;;40.30;21.90;;;;;;;3.20;81.66;102069.86;112852;241;40224;-69
2024/01/21 11:36:19;;;;;;;40.70;23.70;;;;;;;3.21;81.39;102066.95;112839;241;39020;-70
2024/01/21 11:38:52;;;;;;;39.00;22.80;;;;;;;3.23;81.41;102063.35;112831;241;39090;-68
2024/01/21 11:41:28;;;;;;;37.50;21.90;;;;;;;3.27;81.09;102065.69;112854;241;38442;-68
2024/01/21 11:44:13;;;;;;;39.00;23.20;;;;;;;3.32;81.23;102065.94;112833;241;39671;-68
2024/01/21 11:46:47;;;;;;;40.60;22.80;;;;;;;3.40;81.03;102061.77;112842;241;39851;-68
2024/01/21 11:49:21;;;;;;;39.90;22.90;;;;;;;3.43;80.42;102062.00;112882;241;39037;-69
2024/01/21 11:51:55;;;;;;;41.80;23.60;;;;;;;3.42;80.57;102060.79;112906;241;40180;-70
2024/01/21 11:54:30;;;;;;;40.30;23.20;;;;;;;3.41;80.46;102060.41;112914;241;38545;-68